createdAt,value
2023-03-31T00:01:34.520Z,9.65
2023-03-31T00:04:36.711Z,11.07
2023-03-31T00:07:38.887Z,10.00
2023-03-31T00:10:46.672Z,9.80
2023-03-31T00:13:49.040Z,9.52
2023-03-31T00:16:51.369Z,9.75
2023-03-31T00:19:53.820Z,10.55
2023-03-31T00:22:57.719Z,9.45
2023-03-31T00:26:00.407Z,11.35
2023-03-31T00:29:03.678Z,11.10
2023-03-31T00:32:06.129Z,11.30
2023-03-31T00:35:08.940Z,11.50
2023-03-31T00:38:14.010Z,10.27
2023-03-31T00:41:16.270Z,10.75
2023-03-31T00:44:22.846Z,12.85
2023-03-31T00:47:26.724Z,12.20
2023-03-31T00:50:36.187Z,9.50
2023-03-31T00:53:38.453Z,9.57
2023-03-31T00:56:42.346Z,9.73
2023-03-31T00:59:48.156Z,9.50
2023-03-31T01:02:56.226Z,7.95
2023-03-31T01:06:06.653Z,7.93
2023-03-31T01:09:10.001Z,8.02
2023-03-31T01:12:12.662Z,8.10
2023-03-31T01:15:15.704Z,6.87
2023-03-31T01:18:21.971Z,7.72
2023-03-31T01:21:42.724Z,8.45
2023-03-31T01:24:55.180Z,7.20
2023-03-31T01:28:08.724Z,6.75
2023-03-31T01:31:29.642Z,6.80
2023-03-31T01:34:31.779Z,7.43
2023-03-31T01:37:39.843Z,6.57
2023-03-31T01:41:03.455Z,5.25
2023-03-31T01:44:23.792Z,5.47
2023-03-31T01:47:40.905Z,5.28
2023-03-31T01:50:46.657Z,5.60
2023-03-31T01:54:00.278Z,4.50
2023-03-31T01:57:09.969Z,5.32
2023-03-31T02:00:15.729Z,5.05
2023-03-31T02:03:22.625Z,5.05
2023-03-31T02:06:29.217Z,3.60
2023-03-31T02:09:35.737Z,6.07
2023-03-31T02:12:40.189Z,4.95
2023-03-31T02:15:44.451Z,4.90
2023-03-31T02:18:48.263Z,2.97
2023-03-31T02:21:51.193Z,5.57
2023-03-31T02:24:54.524Z,3.33
2023-03-31T02:28:00.463Z,3.15
2023-03-31T02:31:07.883Z,4.18
2023-03-31T02:34:10.175Z,6.75
2023-03-31T02:37:13.130Z,3.33
2023-03-31T02:40:20.787Z,3.83
2023-03-31T02:43:23.063Z,3.30
2023-03-31T02:46:26.011Z,2.67
2023-03-31T02:49:28.352Z,4.05
2023-03-31T02:52:59.144Z,3.42
2023-03-31T02:56:38.149Z,3.87
2023-03-31T03:00:01.589Z,4.28
2023-03-31T03:03:18.904Z,3.92
2023-03-31T03:06:57.564Z,4.10
2023-03-31T03:10:07.384Z,4.43
2023-03-31T03:13:23.386Z,3.97
2023-03-31T03:16:40.624Z,3.78
2023-03-31T03:19:43.213Z,2.67
2023-03-31T03:22:45.454Z,3.10
2023-03-31T03:25:48.047Z,2.40
2023-03-31T03:28:53.086Z,3.40
2023-03-31T03:31:55.541Z,3.67
2023-03-31T03:34:57.732Z,2.30
2023-03-31T03:38:00.345Z,2.87
2023-03-31T03:41:02.909Z,2.30
2023-03-31T03:44:05.755Z,2.75
2023-03-31T03:47:07.925Z,2.35
2023-03-31T03:50:12.563Z,2.40
2023-03-31T03:53:16.299Z,2.80
2023-03-31T03:56:18.498Z,2.80
2023-03-31T03:59:20.734Z,2.80
2023-03-31T04:02:23.949Z,2.15
2023-03-31T04:05:27.421Z,2.12
2023-03-31T04:08:29.703Z,2.40
2023-03-31T04:11:32.001Z,2.47
2023-03-31T04:14:34.320Z,2.60
2023-03-31T04:17:37.649Z,2.53
2023-03-31T04:20:39.961Z,2.22
2023-03-31T04:23:48.580Z,3.03
2023-03-31T04:26:51.127Z,2.55
2023-03-31T04:29:56.631Z,2.33
2023-03-31T04:33:00.433Z,2.95
2023-03-31T04:36:07.412Z,2.25
2023-03-31T04:39:12.872Z,2.87
2023-03-31T04:42:15.604Z,2.83
2023-03-31T04:45:18.366Z,3.60
2023-03-31T04:48:20.956Z,3.83
2023-03-31T04:51:23.223Z,3.72
2023-03-31T04:54:25.589Z,3.50
2023-03-31T04:57:27.908Z,4.45
2023-03-31T05:00:30.184Z,4.62
2023-03-31T05:03:32.759Z,4.00
2023-03-31T05:06:34.989Z,4.22
2023-03-31T05:09:37.185Z,4.05
2023-03-31T05:12:39.906Z,5.35
2023-03-31T05:15:45.022Z,7.68
2023-03-31T05:18:47.729Z,5.78
2023-03-31T05:21:49.989Z,4.53
2023-03-31T05:24:52.239Z,4.25
2023-03-31T14:03:36.641Z,1.80
2023-03-31T14:06:49.134Z,2.12
2023-03-31T14:09:54.055Z,2.37
2023-03-31T14:13:12.506Z,5.87
2023-03-31T14:16:14.904Z,2.75
2023-03-31T14:19:17.090Z,1.67
2023-03-31T14:22:40.573Z,2.28
2023-03-31T14:26:17.316Z,1.77
2023-03-31T14:29:31.426Z,2.15
2023-03-31T14:32:46.955Z,1.50
2023-03-31T14:35:58.680Z,1.52
2023-03-31T14:39:07.428Z,5.20
2023-03-31T14:42:21.771Z,6.25
2023-03-31T14:45:25.922Z,5.53
2023-03-31T14:48:29.938Z,3.65
2023-03-31T14:51:32.262Z,2.90
2023-03-31T14:54:37.844Z,2.00
2023-03-31T14:57:41.410Z,1.65
2023-03-31T15:00:43.684Z,1.40
2023-03-31T15:03:47.015Z,1.60
2023-03-31T15:06:50.692Z,1.62
2023-03-31T15:09:53.536Z,1.70
2023-03-31T15:12:55.697Z,2.58
2023-03-31T15:15:57.870Z,1.60
2023-03-31T15:19:01.690Z,2.05
2023-03-31T15:22:19.388Z,1.55
2023-03-31T15:25:23.724Z,1.85
2023-03-31T15:28:29.644Z,1.98
2023-03-31T15:31:32.235Z,3.00
2023-03-31T15:34:36.006Z,2.08
2023-03-31T15:37:42.867Z,1.40
2023-03-31T15:40:49.573Z,1.83
2023-03-31T15:44:27.393Z,1.45
2023-03-31T15:47:29.725Z,1.60
2023-03-31T15:50:33.137Z,2.12
2023-03-31T15:53:47.033Z,1.67
2023-03-31T15:56:51.165Z,2.15
2023-03-31T15:59:57.905Z,2.20
2023-03-31T16:03:02.039Z,1.60
2023-03-31T16:06:22.828Z,2.15
2023-03-31T16:09:39.289Z,2.37
2023-03-31T16:13:03.385Z,1.75
2023-03-31T16:16:09.253Z,2.10
2023-03-31T16:19:11.803Z,2.00
2023-03-31T16:22:18.960Z,2.58
2023-03-31T16:25:26.040Z,1.70
2023-03-31T16:28:33.520Z,1.37
2023-03-31T16:31:39.438Z,1.23
2023-03-31T16:34:52.816Z,1.52
2023-03-31T16:37:54.983Z,1.80
2023-03-31T16:40:58.129Z,1.42
2023-03-31T16:44:00.576Z,1.35
2023-03-31T16:47:02.914Z,1.60
2023-03-31T16:50:07.671Z,1.73
2023-03-31T16:53:10.699Z,2.25
2023-03-31T16:56:13.835Z,1.80
2023-03-31T16:59:16.383Z,1.23
2023-03-31T17:02:18.742Z,1.33
2023-03-31T17:05:21.587Z,1.48
2023-03-31T17:08:26.299Z,1.80
2023-03-31T17:11:32.377Z,1.30
2023-03-31T17:14:36.039Z,1.30
2023-03-31T17:17:38.466Z,1.62
2023-03-31T17:20:40.881Z,1.50
2023-03-31T17:23:43.361Z,1.98
2023-03-31T17:26:46.014Z,1.50
2023-03-31T17:29:48.214Z,1.40
2023-03-31T17:32:51.588Z,1.30
2023-03-31T17:36:01.128Z,1.48
2023-03-31T17:39:05.127Z,1.75
2023-03-31T17:42:08.235Z,1.50
2023-03-31T17:45:12.154Z,1.85
2023-03-31T17:48:16.420Z,1.30
2023-03-31T17:51:19.652Z,1.40
2023-03-31T17:54:22.077Z,2.15
2023-03-31T17:57:24.413Z,1.90
2023-03-31T18:00:26.721Z,2.67
2023-03-31T18:03:29.588Z,1.92
2023-03-31T18:06:32.002Z,2.05
2023-03-31T18:09:34.677Z,1.42
2023-03-31T18:12:36.954Z,2.10
2023-03-31T18:15:39.452Z,2.00
2023-03-31T18:18:42.438Z,2.22
2023-03-31T18:21:44.806Z,2.17
2023-03-31T18:24:47.422Z,1.55
2023-03-31T18:27:50.150Z,2.28
2023-03-31T18:30:53.318Z,1.65
2023-03-31T18:33:55.858Z,1.80
2023-03-31T18:36:58.393Z,2.25
2023-03-31T18:40:01.610Z,2.80
2023-03-31T18:43:04.319Z,4.78
2023-03-31T18:46:07.730Z,2.47
2023-03-31T18:49:11.356Z,3.28
2023-03-31T18:52:14.293Z,3.00
2023-03-31T18:55:16.809Z,2.67
2023-03-31T18:58:19.320Z,2.30
2023-03-31T19:01:21.937Z,2.25
2023-03-31T19:04:24.563Z,2.45
2023-03-31T19:07:26.773Z,3.78
2023-03-31T19:10:29.153Z,4.25
2023-03-31T19:13:32.035Z,5.43
2023-03-31T19:16:41.556Z,2.45
2023-03-31T19:19:45.241Z,10.27
2023-03-31T19:22:50.210Z,27.83
2023-03-31T19:25:54.593Z,17.20
2023-03-31T19:28:57.046Z,3.50
2023-03-31T19:31:59.802Z,4.15
2023-03-31T19:35:02.422Z,3.95
2023-03-31T19:38:05.080Z,2.67
2023-03-31T19:41:07.741Z,2.08
2023-03-31T19:44:10.299Z,2.97
2023-03-31T19:47:12.947Z,3.40
2023-03-31T19:50:15.621Z,3.47
2023-03-31T19:53:18.791Z,2.95
2023-03-31T19:56:25.145Z,3.03
2023-03-31T19:59:27.652Z,3.80
2023-03-31T20:02:30.394Z,3.40
2023-03-31T20:05:33.039Z,2.30
2023-03-31T20:08:36.495Z,1.77
2023-03-31T20:11:40.016Z,2.08
2023-03-31T20:14:43.616Z,1.48
2023-03-31T20:17:47.189Z,1.55
2023-03-31T20:20:49.788Z,1.60
2023-03-31T20:23:52.104Z,1.73
2023-03-31T20:26:54.535Z,0.90
2023-03-31T20:29:58.016Z,1.10
2023-03-31T20:33:00.571Z,1.20
2023-03-31T20:36:08.967Z,1.87
2023-03-31T20:39:13.235Z,1.10
2023-03-31T20:42:16.767Z,1.52
2023-03-31T20:45:19.085Z,1.90
2023-03-31T20:48:21.429Z,2.30
2023-03-31T20:51:29.443Z,1.40
2023-03-31T20:54:32.082Z,1.60
2023-03-31T20:57:34.332Z,1.25
2023-03-31T21:00:36.695Z,1.35
2023-03-31T21:03:39.101Z,1.60
2023-03-31T21:06:44.600Z,1.80
2023-03-31T21:09:46.925Z,1.35
2023-03-31T21:12:49.118Z,1.27
2023-03-31T21:15:54.432Z,1.12
2023-03-31T21:18:57.107Z,1.10
2023-03-31T21:21:59.294Z,1.02
2023-03-31T21:25:01.535Z,1.42
2023-03-31T21:28:03.804Z,1.25
2023-03-31T21:31:08.265Z,1.15
2023-03-31T21:34:10.937Z,1.05
2023-03-31T21:37:13.304Z,0.90
2023-03-31T21:40:16.697Z,0.90
2023-03-31T21:43:23.604Z,0.95
2023-03-31T21:46:28.597Z,1.02
2023-03-31T21:49:30.854Z,0.90
2023-03-31T21:52:33.348Z,0.77
2023-03-31T21:55:37.280Z,1.10
2023-03-31T21:58:39.448Z,1.30
2023-03-31T22:01:41.787Z,1.83
2023-03-31T22:04:44.115Z,1.50
2023-03-31T22:07:46.668Z,1.70
2023-03-31T22:10:52.307Z,1.70
2023-03-31T22:13:54.550Z,1.70
2023-03-31T22:16:57.085Z,1.98
2023-03-31T22:19:59.326Z,2.33
2023-03-31T22:23:01.696Z,2.12
2023-03-31T22:26:04.045Z,1.90
2023-03-31T22:29:06.425Z,1.62
2023-03-31T22:32:08.620Z,1.50
2023-03-31T22:35:11.202Z,1.40
2023-03-31T22:38:14.026Z,1.75
2023-03-31T22:41:16.298Z,1.27
2023-03-31T22:44:18.724Z,1.20
2023-03-31T22:47:21.009Z,1.58
2023-03-31T22:50:24.035Z,1.35
2023-03-31T22:53:26.439Z,1.75
2023-03-31T22:56:28.662Z,1.60
2023-03-31T22:59:31.222Z,1.40
2023-03-31T23:02:33.484Z,1.25
2023-03-31T23:05:35.949Z,1.50
2023-03-31T23:08:38.834Z,1.35
2023-03-31T23:11:41.295Z,1.50
2023-03-31T23:14:43.488Z,1.30
2023-03-31T23:17:45.727Z,2.42
2023-03-31T23:20:48.144Z,1.05
2023-03-31T23:23:53.629Z,0.90
2023-03-31T23:26:55.863Z,1.00
2023-03-31T23:29:58.066Z,0.90
2023-03-31T23:36:05.063Z,0.93
2023-03-31T23:39:07.276Z,1.20
2023-03-31T23:42:10.089Z,1.00
2023-03-31T23:45:12.270Z,0.90
2023-03-31T23:48:14.530Z,2.53
2023-03-31T23:51:16.800Z,1.75
2023-03-31T23:54:19.452Z,1.05
2023-03-31T23:57:21.654Z,1.10
